Terminal Aerodrome Forecast
Issued by NWS

Home | Current Version | Previous Version | Text Only | Print | Product List | Glossary On
Versions: 1 2 3 4 5 6 7 8 9 10 11 12 13 14 15 16 17 18 19 20 21 22
000
FTUS46 KMFR 262138 AAB
TAFOTH
TAF AMD
KOTH 262138Z 2622/2718 33010KT P6SM OVC005
     FM270200 35006KT P6SM BKN020
     FM270600 18003KT 3SM BR OVC002
     FM271000 VRB03KT 1/2SM FG OVC002=

USA.gov is the U.S. government's official web portal to all federal, state and local government web resources and services.